Change the Weather History Date:

Saturday, June 22, 2013

  Actual Average Record
Temperature  
Mean Temperature 64 °F -  
Max Temperature 70 °F 68 °F 85 °F (1975)
Min Temperature 58 °F 53 °F 36 °F (1992)
Degree Days  
Heating Degree Days 1    
Growing Degree Days 14 (Base 50)    
Moisture  
Dew Point 60 °F    
Average Humidity 91    
Maximum Humidity 97    
Minimum Humidity 77    
Precipitation  
Precipitation 0.00 in - - ()
Sea Level Pressure  
Sea Level Pressure 30.02 in    
Wind  
Wind Speed 6 mph (SW)    
Max Wind Speed 10 mph    
Max Gust Speed 16 mph    
Visibility 5 miles    
Events Fog    
Averages and records for this station are not official NWS values.
T = Trace of Precipitation, MM = Missing Value Source: NWS Daily Summary

Daily Weather History Graph

Daily Weather History Graph

Search for Another Location

Airport or City:

Trip Planner

Search our weather history database for the weather conditions in past years. The results will help you decide how hot, cold, wet, or windy it might be!

Date:

Astronomy

Jun. 22, 2013 Rise Set
Actual Time 5:48 AM EDT 9:32 PM EDT
Civil Twilight 5:10 AM EDT 10:11 PM EDT
Nautical Twilight 4:18 AM EDT 11:02 PM EDT
Astronomical Twilight 3:06 AM EDT 12:14 AM EDT
Moon 8:42 PM EDT (6/22) 5:03 AM EDT (6/22)
Length of Visible Light 17h 00m
Length of Day
15h 44m
Waxing Gibbous, 99% of the Moon is Illuminated
Jun 22
Waxing Gibbous
Jun 23
Full
Jun 30
Last Quarter
Jul 8
New
Jul 15
First Quarter

Hourly Weather History & Observations

Time (EDT) Temp. Dew Point Humidity Pressure Visibility Wind Dir Wind Speed Gust Speed Precip Events Conditions
12:13 AM 60.1 °F 58.1 °F 93% 29.97 in 10.0 mi West 6.9 mph - N/A   Overcast
12:34 AM 59.9 °F 57.9 °F 93% 29.98 in 10.0 mi WSW 6.9 mph 16.1 mph N/A   Overcast
12:54 AM 59.4 °F 57.6 °F 94% 29.98 in 7.0 mi WSW 6.9 mph - N/A   Overcast
1:13 AM 59.0 °F 57.4 °F 94% 29.98 in 7.0 mi WSW 10.4 mph 16.1 mph N/A   Overcast
1:34 AM 58.5 °F 57.0 °F 95% 29.97 in 4.0 mi WSW 9.2 mph - N/A   Overcast
1:54 AM 58.1 °F 56.7 °F 95% 29.98 in 2.5 mi SW 8.1 mph - N/A   Overcast
2:13 AM 58.1 °F 56.7 °F 95% 29.98 in 0.8 mi WSW 6.9 mph - N/A   Overcast
2:34 AM 58.3 °F 57.2 °F 96% 29.97 in 0.2 mi WSW 6.9 mph - N/A Fog Fog
2:54 AM 58.1 °F 57.0 °F 96% 29.94 in 0.2 mi WSW 9.2 mph - N/A Fog Fog
3:13 AM 58.3 °F 57.2 °F 96% 29.97 in 0.2 mi WSW 6.9 mph - N/A Fog Fog
3:34 AM 58.5 °F 57.2 °F 96% 29.95 in 0.2 mi WSW 6.9 mph - N/A Fog Fog
3:54 AM 58.3 °F 57.2 °F 96% 29.95 in 0.2 mi WSW 8.1 mph - N/A Fog Fog
4:13 AM 58.3 °F 57.2 °F 96% 29.94 in 0.2 mi WSW 8.1 mph - N/A Fog Fog
4:34 AM 59.0 °F 57.9 °F 96% 29.94 in 0.2 mi SW 6.9 mph - N/A Fog Fog
4:54 AM 59.4 °F 58.1 °F 96% 29.96 in 0.2 mi WSW 6.9 mph - N/A Fog Fog
5:13 AM 59.2 °F 58.1 °F 96% 29.96 in 0.2 mi WSW 8.1 mph - N/A Fog Fog
5:34 AM 59.9 °F 58.6 °F 96% 29.97 in 0.2 mi WSW 4.6 mph - N/A Fog Fog
5:54 AM 59.9 °F 58.6 °F 96% 29.97 in 0.2 mi WSW 6.9 mph - N/A Fog Fog
6:13 AM 59.9 °F 58.6 °F 96% 29.99 in 0.2 mi West 9.2 mph - N/A Fog Fog
6:34 AM 59.9 °F 58.6 °F 96% 30.01 in 0.2 mi West 8.1 mph - N/A Fog Fog
6:54 AM 59.9 °F 58.6 °F 96% 30.02 in 0.2 mi West 10.4 mph 16.1 mph N/A Fog Fog
7:13 AM 59.9 °F 59.0 °F 97% 30.01 in 0.2 mi WNW 6.9 mph - N/A Fog Fog
7:34 AM 60.1 °F 59.0 °F 96% 30.02 in 0.2 mi WNW 6.9 mph - N/A Fog Fog
7:54 AM 60.3 °F 59.2 °F 96% 30.02 in 0.2 mi WNW 4.6 mph - N/A Fog Fog
8:13 AM 61.3 °F 60.3 °F 96% 30.01 in 0.8 mi North 3.5 mph - N/A   Overcast
8:34 AM 62.8 °F 61.7 °F 96% 30.02 in 5.0 mi NW 4.6 mph - N/A   Scattered Clouds
8:54 AM 59.9 °F 58.8 °F 96% 30.04 in 0.2 mi WSW 8.1 mph - N/A Fog Fog
9:13 AM 59.9 °F 58.8 °F 96% 30.04 in 0.2 mi Calm Calm - N/A Fog Fog
9:34 AM 62.6 °F 61.5 °F 96% 30.05 in 4.0 mi WSW 5.8 mph - N/A   Overcast
9:54 AM 59.4 °F 58.3 °F 96% 30.06 in 0.2 mi WSW 6.9 mph - N/A Fog Fog
10:13 AM 59.2 °F 58.1 °F 96% 30.07 in 0.2 mi WSW 6.9 mph - N/A Fog Fog
10:34 AM 59.4 °F 58.3 °F 96% 30.06 in 0.2 mi WSW 6.9 mph - N/A Fog Fog
10:54 AM 60.4 °F 59.4 °F 96% 30.06 in 1.8 mi West 4.6 mph - N/A   Overcast
11:13 AM 61.9 °F 60.8 °F 96% 30.05 in 5.0 mi Calm Calm - N/A   Overcast
11:34 AM 63.9 °F 62.6 °F 96% 30.05 in 7.0 mi Calm Calm - N/A   Overcast
11:54 AM 66.2 °F 63.5 °F 91% 30.06 in 10.0 mi North 4.6 mph - N/A   Overcast
12:13 PM 66.6 °F 63.5 °F 90% 30.07 in 10.0 mi Calm Calm - N/A   Overcast
12:34 PM 67.5 °F 63.9 °F 88% 30.07 in 10.0 mi North 6.9 mph - N/A   Overcast
12:53 PM 63.7 °F 60.4 °F 89% 30.08 in 7.0 mi Calm Calm - N/A   Overcast
1:14 PM 61.9 °F 59.5 °F 92% 30.07 in 4.0 mi WSW 6.9 mph - N/A   Overcast
1:34 PM 61.5 °F 59.5 °F 93% 30.05 in 4.0 mi Calm Calm - N/A   Overcast
1:53 PM 62.4 °F 59.9 °F 91% 30.05 in 5.0 mi Calm Calm - N/A   Overcast
2:14 PM 64.4 °F 61.2 °F 89% 30.05 in 7.0 mi Calm Calm - N/A   Overcast
2:34 PM 66.7 °F 62.2 °F 85% 30.04 in 10.0 mi Calm Calm - N/A   Overcast
2:53 PM 68.7 °F 62.6 °F 81% 30.04 in 10.0 mi South 3.5 mph - N/A   Overcast
3:14 PM 68.0 °F 61.9 °F 81% 30.04 in 10.0 mi SSE 5.8 mph - N/A   Overcast
3:34 PM 67.3 °F 61.7 °F 82% 30.03 in 10.0 mi SSE 4.6 mph - N/A   Overcast
3:53 PM 66.4 °F 61.7 °F 85% 30.02 in 10.0 mi SE 4.6 mph - N/A   Overcast
4:14 PM 68.4 °F 61.7 °F 79% 30.01 in 10.0 mi SE 5.8 mph - N/A   Overcast
4:33 PM 68.7 °F 62.2 °F 80% 30.02 in 10.0 mi SSE 8.1 mph - N/A   Overcast
4:54 PM 68.2 °F 61.7 °F 80% 30.04 in 10.0 mi Calm Calm - N/A   Overcast
5:14 PM 70.2 °F 62.6 °F 77% 30.04 in 10.0 mi SE 5.8 mph - N/A   Overcast
5:33 PM 69.1 °F 62.1 °F 78% 30.06 in 10.0 mi South 3.5 mph - N/A   Overcast
5:54 PM 68.4 °F 61.9 °F 80% 30.06 in 10.0 mi Calm Calm - N/A   Overcast
6:14 PM 68.2 °F 62.6 °F 82% 30.06 in 10.0 mi Calm Calm - N/A   Overcast
6:33 PM 66.6 °F 61.5 °F 84% 30.05 in 10.0 mi WNW 5.8 mph - N/A   Overcast
6:54 PM 66.9 °F 61.5 °F 83% 30.05 in 10.0 mi NNW 4.6 mph - N/A   Overcast
7:14 PM 65.3 °F 61.3 °F 87% 30.06 in 10.0 mi NW 5.8 mph - N/A   Mostly Cloudy
7:33 PM 67.1 °F 62.1 °F 84% 30.06 in 10.0 mi North 3.5 mph - N/A   Clear
7:54 PM 67.1 °F 62.1 °F 84% 30.06 in 10.0 mi ENE 3.5 mph - N/A   Clear
8:14 PM 65.8 °F 61.7 °F 86% 30.06 in 10.0 mi ENE 3.5 mph - N/A   Clear
8:33 PM 65.1 °F 62.1 °F 90% 30.05 in 10.0 mi ENE 9.2 mph - N/A   Clear
8:54 PM 64.4 °F 61.9 °F 92% 30.05 in 5.0 mi East 8.1 mph - N/A   Clear
9:13 PM 63.9 °F 62.1 °F 94% 30.05 in 3.0 mi East 8.1 mph - N/A   Scattered Clouds
9:33 PM 63.9 °F 62.6 °F 96% 30.03 in 0.5 mi East 5.8 mph - N/A Fog Fog
9:54 PM 63.7 °F 62.2 °F 95% 30.03 in 1.8 mi East 6.9 mph - N/A   Overcast
10:13 PM 64.0 °F 62.6 °F 95% 30.03 in 5.0 mi East 8.1 mph - N/A   Scattered Clouds
10:33 PM 64.0 °F 62.6 °F 95% 30.03 in 5.0 mi ESE 8.1 mph - N/A   Clear
10:54 PM 64.4 °F 62.6 °F 94% 30.03 in 7.0 mi SE 5.8 mph - N/A   Clear
11:13 PM 64.4 °F 62.2 °F 93% 30.03 in 7.0 mi ESE 6.9 mph - N/A   Clear
11:33 PM 63.7 °F 61.9 °F 94% 30.03 in 5.0 mi SE 6.9 mph - N/A   Clear
11:54 PM 63.7 °F 62.1 °F 94% 30.04 in 5.0 mi SE 6.9 mph - N/A   Clear